createdAt,value
2022-11-22T00:01:34.698Z,2.43
2022-11-22T00:06:56.435Z,2.40
2022-11-22T00:12:18.160Z,2.20
2022-11-22T00:17:40.078Z,2.50
2022-11-22T00:23:01.997Z,2.53
2022-11-22T00:28:23.692Z,2.00
2022-11-22T00:33:45.417Z,2.03
2022-11-22T00:39:07.112Z,2.00
2022-11-22T00:44:28.791Z,1.93
2022-11-22T00:49:50.673Z,1.95
2022-11-22T00:55:12.341Z,1.90
2022-11-22T01:00:34.444Z,2.30
2022-11-22T01:05:56.139Z,2.60
2022-11-22T01:11:18.838Z,2.17
2022-11-22T01:16:40.613Z,2.10
2022-11-22T01:22:02.365Z,3.47
2022-11-22T01:27:24.489Z,2.00
2022-11-22T01:32:46.212Z,1.98
2022-11-22T01:38:07.947Z,1.83
2022-11-22T01:43:29.776Z,1.67
2022-11-22T01:48:56.816Z,1.70
2022-11-22T01:54:24.249Z,1.77
2022-11-22T01:59:53.719Z,1.73
2022-11-22T02:05:17.996Z,2.10
2022-11-22T02:10:44.834Z,1.77
2022-11-22T02:16:07.180Z,1.60
2022-11-22T02:21:29.295Z,1.70
2022-11-22T02:26:50.981Z,2.10
2022-11-22T02:32:12.639Z,2.05
2022-11-22T02:37:34.415Z,2.00
2022-11-22T02:43:01.708Z,1.90
2022-11-22T02:48:23.509Z,2.13
2022-11-22T02:53:49.911Z,1.80
2022-11-22T02:59:11.636Z,2.50
2022-11-22T03:04:33.326Z,1.90
2022-11-22T03:09:54.995Z,2.03
2022-11-22T03:15:16.733Z,1.90
2022-11-22T03:20:38.409Z,2.00
2022-11-22T03:26:00.127Z,1.90
2022-11-22T03:31:21.811Z,1.70
2022-11-22T03:36:43.557Z,1.83
2022-11-22T03:42:05.273Z,1.90
2022-11-22T03:47:26.945Z,1.90
2022-11-22T03:52:48.663Z,2.07
2022-11-22T03:58:10.558Z,2.10
2022-11-22T04:03:32.550Z,1.95
2022-11-22T04:08:54.319Z,2.17
2022-11-22T04:14:34.871Z,2.23
2022-11-22T04:20:15.147Z,2.10
2022-11-22T04:25:39.283Z,2.37
2022-11-22T04:31:19.651Z,2.00
2022-11-22T04:36:41.334Z,1.80
2022-11-22T04:42:21.268Z,1.70
2022-11-22T04:48:01.286Z,2.10
2022-11-22T04:53:23.065Z,1.37
2022-11-22T04:58:44.784Z,1.83
2022-11-22T05:04:06.451Z,1.70
2022-11-22T05:09:28.508Z,1.90
2022-11-22T05:14:50.425Z,1.87
2022-11-22T05:20:12.237Z,1.97
2022-11-22T05:25:33.959Z,1.63
2022-11-22T05:30:56.681Z,1.83
2022-11-22T05:36:19.133Z,2.53
2022-11-22T05:41:55.624Z,2.50
2022-11-22T05:47:17.315Z,2.77
2022-11-22T05:52:39.241Z,2.57
2022-11-22T05:58:01.595Z,2.43
2022-11-22T06:03:23.272Z,2.57
2022-11-22T06:08:47.598Z,2.23
2022-11-22T06:14:09.333Z,2.57
2022-11-22T06:19:31.158Z,2.30
2022-11-22T06:24:52.921Z,2.37
2022-11-22T06:30:15.074Z,2.70
2022-11-22T06:35:36.773Z,2.80
2022-11-22T06:41:06.959Z,2.27
2022-11-22T06:46:28.698Z,2.77
2022-11-22T06:51:50.383Z,2.33
2022-11-22T06:57:15.113Z,2.30
2022-11-22T07:02:36.809Z,2.43
2022-11-22T07:08:05.417Z,2.67
2022-11-22T07:13:29.952Z,3.07
2022-11-22T07:18:51.679Z,2.77
2022-11-22T07:24:14.307Z,2.60
2022-11-22T07:29:35.986Z,2.83
2022-11-22T07:34:57.644Z,3.30
2022-11-22T07:40:19.323Z,2.87
2022-11-22T07:45:40.991Z,2.67
2022-11-22T07:51:07.275Z,3.13
2022-11-22T07:56:28.940Z,3.33
2022-11-22T08:01:50.680Z,3.30
2022-11-22T08:07:12.443Z,3.03
2022-11-22T08:12:34.119Z,2.80
2022-11-22T08:17:55.886Z,2.97
2022-11-22T08:23:17.651Z,2.80
2022-11-22T08:28:40.308Z,2.60
2022-11-22T08:34:02.121Z,2.60
2022-11-22T08:39:23.841Z,2.33
2022-11-22T08:44:45.555Z,2.90
2022-11-22T08:50:07.826Z,2.33
2022-11-22T08:55:29.573Z,2.43
2022-11-22T09:00:51.313Z,2.53
2022-11-22T09:11:59.727Z,2.50
2022-11-22T09:17:21.981Z,2.53
2022-11-22T09:22:43.766Z,2.30
2022-11-22T09:28:05.460Z,2.53
2022-11-22T09:33:27.691Z,2.97
2022-11-22T09:38:50.735Z,2.70
2022-11-22T09:44:36.309Z,2.70
2022-11-22T09:50:26.307Z,2.03
2022-11-22T09:55:52.872Z,2.08
2022-11-22T10:01:23.036Z,2.33
2022-11-22T10:06:54.081Z,2.60
2022-11-22T10:12:39.022Z,2.53
2022-11-22T10:18:05.047Z,2.17
2022-11-22T10:23:27.523Z,2.30
2022-11-22T10:29:03.335Z,1.92
2022-11-22T10:34:46.459Z,2.63
2022-11-22T10:40:18.697Z,2.30
2022-11-22T10:45:59.069Z,2.40
2022-11-22T10:51:31.376Z,2.20
2022-11-22T10:56:55.260Z,2.50
2022-11-22T11:02:38.954Z,2.77
2022-11-22T11:08:21.773Z,1.60
2022-11-22T11:13:47.452Z,2.40
2022-11-22T11:19:20.806Z,2.03
2022-11-22T11:24:42.501Z,2.30
2022-11-22T11:30:04.754Z,2.42
2022-11-22T11:35:29.053Z,1.70
2022-11-22T11:40:50.711Z,2.03
2022-11-22T11:46:26.473Z,1.95
2022-11-22T11:51:54.319Z,2.00
2022-11-22T11:57:19.045Z,1.50
2022-11-22T12:02:46.491Z,2.38
2022-11-22T12:08:31.545Z,1.83
2022-11-22T12:14:19.655Z,1.67
2022-11-22T12:20:00.676Z,1.70
2022-11-22T12:31:36.468Z,1.80
2022-11-22T12:37:12.483Z,2.08
2022-11-22T12:42:43.604Z,1.92
2022-11-22T12:48:13.526Z,1.87
2022-11-22T12:48:23.741Z,1.90
2022-11-22T12:53:39.531Z,2.30
2022-11-22T12:59:17.671Z,1.65
2022-11-22T13:04:52.469Z,2.00
2022-11-22T13:10:26.112Z,1.83
2022-11-22T13:15:51.194Z,1.87
2022-11-22T13:21:22.027Z,1.90
2022-11-22T13:27:14.717Z,2.03
2022-11-22T13:32:41.732Z,1.40
2022-11-22T13:38:21.106Z,1.50
2022-11-22T13:44:26.312Z,1.63
2022-11-22T13:49:49.396Z,1.05
2022-11-22T13:55:38.835Z,1.42
2022-11-22T14:01:03.743Z,1.05
2022-11-22T14:06:30.379Z,1.23
2022-11-22T14:12:10.183Z,1.13
2022-11-22T14:17:54.446Z,0.90
2022-11-22T14:23:34.780Z,1.30
2022-11-22T14:29:16.265Z,1.63
2022-11-22T14:35:03.503Z,1.20
2022-11-22T14:40:40.202Z,1.10
2022-11-22T14:46:30.377Z,1.20
2022-11-22T14:51:55.354Z,1.08
2022-11-22T14:57:24.763Z,1.40
2022-11-22T15:03:31.729Z,1.37
2022-11-22T15:09:45.110Z,1.05
2022-11-22T16:02:47.070Z,1.83
2022-11-22T16:08:12.907Z,1.95
2022-11-22T16:13:36.140Z,1.60
2022-11-22T16:19:24.358Z,1.60
2022-11-22T16:24:46.044Z,1.90
2022-11-22T16:30:11.697Z,1.67
2022-11-22T16:35:33.355Z,1.98
2022-11-22T16:40:57.677Z,2.20
2022-11-22T16:46:19.708Z,2.03
2022-11-22T16:51:44.560Z,2.10
2022-11-22T16:57:14.970Z,1.85
2022-11-22T17:02:41.161Z,2.20
2022-11-22T17:08:02.899Z,2.40
2022-11-22T17:13:26.555Z,1.45
2022-11-22T17:18:48.388Z,1.50
2022-11-22T17:24:19.634Z,1.58
2022-11-22T17:29:50.580Z,1.73
2022-11-22T17:35:12.780Z,2.20
2022-11-22T17:40:34.515Z,2.20
2022-11-22T17:45:56.255Z,2.75
2022-11-22T17:51:17.961Z,1.92
2022-11-22T17:56:39.799Z,1.60
2022-11-22T18:02:01.638Z,1.58
2022-11-22T18:07:24.141Z,1.90
2022-11-22T18:13:05.697Z,1.92
2022-11-22T18:18:55.160Z,1.75
2022-11-22T18:24:09.567Z,1.42
2022-11-22T18:29:46.626Z,1.48
2022-11-22T18:35:08.426Z,1.98
2022-11-22T18:40:30.172Z,2.00
2022-11-22T18:45:51.889Z,1.67
2022-11-22T18:51:13.625Z,2.50
2022-11-22T18:56:39.744Z,2.25
2022-11-22T19:02:01.456Z,1.80
2022-11-22T19:07:23.405Z,2.15
2022-11-22T19:12:45.145Z,2.78
2022-11-22T19:18:09.595Z,1.88
2022-11-22T19:23:32.593Z,1.77
2022-11-22T19:28:55.979Z,2.00
2022-11-22T19:34:18.089Z,2.63
2022-11-22T19:39:39.877Z,1.95
2022-11-22T19:45:01.644Z,2.03
2022-11-22T19:50:23.307Z,2.80
2022-11-22T19:55:45.645Z,2.97
2022-11-22T20:01:09.799Z,2.33
2022-11-22T20:06:33.184Z,2.20
2022-11-22T20:11:54.887Z,2.13
2022-11-22T20:17:16.733Z,2.17
2022-11-22T20:22:38.409Z,2.70
2022-11-22T20:28:00.135Z,2.20
2022-11-22T20:33:21.792Z,1.77
2022-11-22T20:38:44.385Z,1.75
2022-11-22T20:44:06.792Z,2.22
2022-11-22T20:49:30.570Z,2.00
2022-11-22T20:54:52.233Z,2.28
2022-11-22T21:00:14.407Z,2.78
2022-11-22T21:05:36.440Z,3.53
2022-11-22T21:11:13.463Z,2.70
2022-11-22T21:16:35.145Z,2.50
2022-11-22T21:21:56.823Z,2.53
2022-11-22T21:27:20.318Z,3.08
2022-11-22T21:32:42.026Z,2.60
2022-11-22T21:38:03.695Z,2.60
2022-11-22T21:43:26.165Z,3.25
2022-11-22T21:48:50.166Z,2.90
2022-11-22T21:54:11.965Z,2.43
2022-11-22T21:59:34.160Z,2.70
2022-11-22T22:04:55.896Z,2.90
2022-11-22T22:10:17.726Z,2.97
2022-11-22T22:15:39.817Z,2.70
2022-11-22T22:21:07.622Z,2.17
2022-11-22T22:26:31.972Z,2.53
2022-11-22T22:31:53.616Z,2.57
2022-11-22T22:37:15.307Z,2.40
2022-11-22T22:42:37.077Z,2.28
2022-11-22T22:47:58.728Z,2.10
2022-11-22T22:53:20.456Z,2.08
2022-11-22T22:58:42.328Z,2.47
2022-11-22T23:04:04.141Z,2.40
2022-11-22T23:09:25.847Z,2.53
2022-11-22T23:14:47.539Z,2.38
2022-11-22T23:20:09.702Z,2.17
2022-11-22T23:25:31.449Z,2.37
2022-11-22T23:30:53.283Z,2.50
2022-11-22T23:36:17.628Z,2.30
2022-11-22T23:41:39.373Z,2.70
2022-11-22T23:47:01.026Z,2.67
2022-11-22T23:52:22.685Z,3.10
2022-11-22T23:57:44.430Z,2.43
